Time;durP1;ratioP1;P1;durP2;ratioP2;P2;SDS_P1;SDS_P2;PMS_P1;PMS_P2;Temp;Humidity;BMP_temperature;BMP_pressure;BME280_temperature;BME280_humidity;BME280_pressure;Samples;Min_cycle;Max_cycle;Signal;HPM_P1;HPM_P2
2022/07/24 00:01:52;;;;;;;;;15.75;13.50;;;;;26.49;40.27;100839.44;146605;571;46915;-70
2022/07/24 00:04:45;;;;;;;;;13.25;12.25;;;;;26.47;39.34;100839.41;146608;742;46020;-70
2022/07/24 00:07:43;;;;;;;;;15.25;12.00;;;;;26.50;38.98;100841.19;146605;565;46016;-70
2022/07/24 00:10:35;;;;;;;;;13.50;10.75;;;;;26.55;39.06;100833.16;146611;578;46020;-70
2022/07/24 00:13:27;;;;;;;;;15.00;13.75;;;;;26.61;38.68;100839.28;146606;586;46016;-70
2022/07/24 00:16:19;;;;;;;;;15.75;15.00;;;;;26.66;38.69;100833.87;146616;577;45021;-70
2022/07/24 00:19:12;;;;;;;;;12.50;12.00;;;;;26.66;38.94;100823.25;146605;571;46012;-70
2022/07/24 00:22:04;;;;;;;;;15.00;12.50;;;;;26.65;39.32;100832.12;146608;594;46020;-70
2022/07/24 00:24:56;;;;;;;;;20.00;15.75;;;;;26.65;38.79;100824.16;146604;588;46014;-70
2022/07/24 00:27:51;;;;;;;;;15.25;13.75;;;;;26.63;37.92;100820.63;146614;563;46010;-70
2022/07/24 00:31:02;;;;;;;;;12.75;12.25;;;;;26.59;39.02;100825.12;146598;614;47013;-71
2022/07/24 00:33:54;;;;;;;;;14.25;12.75;;;;;26.55;38.49;100823.41;146612;605;46010;-70
2022/07/24 00:36:47;;;;;;;;;10.25;10.25;;;;;26.51;37.87;100831.44;146604;597;46016;-70
2022/07/24 00:39:39;;;;;;;;;10.00;10.00;;;;;26.44;37.56;100820.84;146611;620;46020;-71
2022/07/24 00:42:31;;;;;;;;;11.25;10.50;;;;;26.36;37.37;100822.72;146606;573;46916;-71
2022/07/24 00:45:23;;;;;;;;;11.75;10.50;;;;;26.33;37.30;100819.22;146609;712;46010;-70
2022/07/24 00:48:16;;;;;;;;;11.75;9.75;;;;;26.29;37.88;100818.34;146606;656;47014;-71
2022/07/24 00:51:08;;;;;;;;;12.00;10.50;;;;;26.24;37.90;100814.91;146610;630;46020;-70
2022/07/24 00:54:00;;;;;;;;;12.00;10.75;;;;;26.19;38.38;100824.69;146603;570;46038;-70
2022/07/24 00:56:55;;;;;;;;;11.50;10.00;;;;;26.11;38.74;100823.91;146609;573;47010;-70
2022/07/24 00:59:47;;;;;;;;;15.25;13.50;;;;;26.07;39.12;100824.81;146606;579;46017;-70
2022/07/24 01:02:39;;;;;;;;;15.50;13.50;;;;;26.08;39.92;100821.28;146609;652;46010;-70
2022/07/24 01:05:31;;;;;;;;;16.00;14.50;;;;;26.10;40.42;100816.81;146607;628;46016;-70
2022/07/24 01:08:24;;;;;;;;;18.25;15.50;;;;;26.13;40.78;100822.97;146613;571;46020;-71
2022/07/24 01:11:16;;;;;;;;;13.75;12.75;;;;;26.17;40.33;100815.88;146606;695;46016;-70
2022/07/24 01:14:09;;;;;;;;;15.00;10.50;;;;;26.19;41.12;100814.94;146610;578;46020;-70
2022/07/24 01:17:01;;;;;;;;;18.50;18.50;;;;;26.23;43.39;100810.47;146608;569;46016;-70
2022/07/24 01:19:53;;;;;;;;;20.75;18.75;;;;;26.24;43.72;100810.47;146612;584;46010;-70
2022/07/24 01:22:45;;;;;;;;;18.25;16.50;;;;;26.27;43.55;100815.72;146611;588;46016;-70
2022/07/24 01:25:37;;;;;;;;;23.00;20.75;;;;;26.34;44.25;100810.34;146612;606;46010;-70
2022/07/24 01:28:30;;;;;;;;;24.00;22.00;;;;;26.39;45.44;100806.75;146608;580;46016;-70
2022/07/24 01:31:21;;;;;;;;;18.75;18.75;;;;;26.42;45.23;100812.00;146613;630;45021;-70
2022/07/24 01:34:14;;;;;;;;;18.25;17.50;;;;;26.39;44.80;100808.53;146603;606;46916;-70
2022/07/24 01:37:06;;;;;;;;;19.00;18.00;;;;;26.33;44.00;100800.63;146613;596;47010;-70
2022/07/24 01:39:58;;;;;;;;;17.25;15.25;;;;;26.29;43.19;100799.75;146604;586;46012;-70
2022/07/24 01:42:50;;;;;;;;;19.75;16.50;;;;;26.20;43.55;100795.44;146616;569;46010;-70
2022/07/24 01:45:42;;;;;;;;;20.00;17.75;;;;;26.13;43.41;100792.87;146604;577;46017;-70
2022/07/24 01:48:35;;;;;;;;;14.75;14.25;;;;;26.05;42.93;100798.28;146611;611;46020;-70
2022/07/24 01:51:27;;;;;;;;;12.00;12.00;;;;;25.98;42.59;100789.50;146606;672;46016;-70
2022/07/24 01:54:19;;;;;;;;;16.00;15.00;;;;;25.94;42.50;100793.06;146612;603;46020;-70
2022/07/24 01:57:11;;;;;;;;;16.25;14.25;;;;;25.89;43.05;100794.00;146606;655;46016;-70
2022/07/24 02:00:04;;;;;;;;;17.75;15.25;;;;;25.81;43.25;100794.09;146610;597;46021;-70
2022/07/24 02:02:56;;;;;;;;;18.00;14.00;;;;;25.74;43.82;100784.41;146601;656;46016;-70
2022/07/24 02:05:49;;;;;;;;;19.25;16.50;;;;;25.66;44.48;100783.59;146614;623;45020;-70
2022/07/24 02:08:41;;;;;;;;;17.50;16.75;;;;;25.57;44.18;100788.09;146606;600;46016;-70
2022/07/24 02:11:33;;;;;;;;;15.75;15.75;;;;;25.49;44.37;100784.66;146610;600;46020;-70
2022/07/24 02:14:25;;;;;;;;;15.50;13.75;;;;;25.44;43.96;100791.75;146606;577;46016;-70
2022/07/24 02:17:17;;;;;;;;;17.00;15.00;;;;;25.40;44.05;100795.34;146611;630;46010;-70
2022/07/24 02:20:10;;;;;;;;;20.00;15.75;;;;;25.34;44.37;100790.09;146605;598;47014;-70
2022/07/24 02:23:02;;;;;;;;;18.00;16.50;;;;;25.30;43.87;100799.84;146609;593;46014;-70
2022/07/24 02:25:55;;;;;;;;;14.25;13.50;;;;;25.29;43.43;100794.53;146606;653;46012;-70
2022/07/24 02:28:46;;;;;;;;;15.00;14.25;;;;;25.28;43.62;100801.62;146613;669;46010;-70
2022/07/24 02:31:39;;;;;;;;;15.75;13.25;;;;;25.23;43.78;100786.63;146606;700;46016;-70
2022/07/24 02:34:31;;;;;;;;;15.00;13.75;;;;;25.15;43.76;100794.66;146609;660;46020;-69
2022/07/24 02:37:23;;;;;;;;;16.50;15.50;;;;;25.10;43.74;100796.44;146605;644;46013;-70
2022/07/24 02:40:17;;;;;;;;;15.25;14.50;;;;;25.09;43.61;100790.25;146611;607;46020;-70
2022/07/24 02:43:09;;;;;;;;;15.25;13.25;;;;;25.11;43.45;100798.22;146604;715;46016;-70
2022/07/24 02:46:01;;;;;;;;;17.25;14.00;;;;;25.16;43.23;100792.87;146611;577;46010;-71
2022/07/24 02:48:53;;;;;;;;;15.25;14.50;;;;;25.19;43.36;100793.75;146608;590;46012;-69
2022/07/24 02:51:45;;;;;;;;;14.00;14.00;;;;;25.19;43.09;100791.09;146612;666;46011;-70
2022/07/24 02:54:37;;;;;;;;;17.75;14.50;;;;;25.17;43.08;100789.34;146605;606;46916;-70
2022/07/24 02:57:30;;;;;;;;;18.25;16.25;;;;;25.15;43.05;100788.50;146606;569;47010;-70
2022/07/24 03:00:22;;;;;;;;;15.50;15.00;;;;;24.03;43.24;100608.91;146606;567;46017;-70
2022/07/24 03:03:14;;;;;;;;;16.25;16.25;;;;;25.09;43.00;100792.03;146612;582;47010;-70
2022/07/24 03:06:07;;;;;;;;;18.50;15.25;;;;;25.09;43.46;100784.94;146611;573;46017;-70
2022/07/24 03:08:59;;;;;;;;;15.75;15.25;;;;;25.15;43.57;100797.31;146611;578;47010;-71
2022/07/24 03:11:51;;;;;;;;;17.25;15.50;;;;;25.21;43.36;100789.31;146607;593;46016;-70
2022/07/24 03:14:43;;;;;;;;;18.75;16.00;;;;;25.27;43.57;100794.56;146613;665;46030;-70
2022/07/24 03:17:35;;;;;;;;;19.75;16.00;;;;;25.38;43.91;100790.94;146610;593;47012;-71
2022/07/24 03:20:30;;;;;;;;;16.00;15.00;;;;;25.41;44.19;100797.09;146612;564;46020;-70
2022/07/24 03:23:22;;;;;;;;;18.25;17.25;;;;;25.35;45.21;100792.72;146610;685;46016;-69
2022/07/24 03:26:14;;;;;;;;;18.50;16.00;;;;;25.27;45.35;100799.00;146613;620;47010;-69
2022/07/24 03:29:06;;;;;;;;;18.00;16.75;;;;;25.19;45.48;100796.41;146609;636;46016;-70
2022/07/24 03:31:58;;;;;;;;;19.00;19.00;;;;;25.15;45.67;100797.31;146614;594;47010;-70
2022/07/24 03:34:50;;;;;;;;;19.00;16.25;;;;;25.15;45.86;100801.75;146609;577;47013;-70
2022/07/24 03:37:42;;;;;;;;;19.00;16.75;;;;;25.20;46.54;100789.31;146613;618;46021;-70
2022/07/24 03:40:34;;;;;;;;;17.50;16.50;;;;;25.23;46.07;100800.78;146608;570;46024;-70
2022/07/24 03:43:27;;;;;;;;;19.50;17.75;;;;;25.26;46.19;100800.75;146614;608;47010;-69
2022/07/24 03:46:19;;;;;;;;;15.00;15.00;;;;;25.32;47.15;100799.81;146608;563;47014;-70
2022/07/24 03:49:11;;;;;;;;;18.00;17.50;;;;;25.36;46.93;100793.63;146613;614;46020;-72
2022/07/24 03:52:03;;;;;;;;;18.50;17.25;;;;;25.38;46.92;100796.25;146610;583;46916;-70
2022/07/24 03:54:56;;;;;;;;;20.75;18.50;;;;;25.43;47.25;100807.72;146615;647;46010;-70
2022/07/24 03:57:48;;;;;;;;;19.75;15.75;;;;;25.46;47.47;100810.34;146610;614;46017;-70
2022/07/24 04:00:40;;;;;;;;;17.25;17.25;;;;;25.47;47.24;100812.09;146614;576;46010;-70
2022/07/24 04:03:32;;;;;;;;;20.50;18.00;;;;;25.49;48.51;100807.66;146611;587;46012;-70
2022/07/24 04:06:24;;;;;;;;;20.50;18.50;;;;;25.42;48.43;100801.53;146611;733;46014;-70
2022/07/24 04:09:17;;;;;;;;;18.00;16.00;;;;;25.38;48.27;100807.75;146608;589;46016;-69
2022/07/24 04:12:09;;;;;;;;;15.25;15.00;;;;;25.38;47.87;100812.19;146612;571;46020;-70
2022/07/24 04:15:02;;;;;;;;;17.00;16.25;;;;;25.40;47.95;100815.72;146606;602;47012;-70
2022/07/24 04:17:54;;;;;;;;;19.00;17.50;;;;;25.44;47.91;100814.78;146614;685;46020;-71
2022/07/24 04:20:46;;;;;;;;;20.50;19.00;;;;;25.49;47.77;100811.19;146610;685;47012;-71
2022/07/24 04:23:38;;;;;;;;;19.00;17.75;;;;;25.51;47.70;100814.72;146614;581;46010;-70
2022/07/24 04:26:30;;;;;;;;;16.25;15.50;;;;;25.58;47.18;100823.53;146611;584;46012;-69
2022/07/24 04:29:22;;;;;;;;;18.25;17.50;;;;;25.65;47.66;100811.06;146612;641;46021;-70
2022/07/24 04:32:14;;;;;;;;;18.00;17.50;;;;;25.79;47.71;100818.00;146611;586;47012;-70
2022/07/24 04:35:08;;;;;;;;;19.25;17.75;;;;;25.92;47.29;100810.81;146615;637;46020;-70
2022/07/24 04:38:00;;;;;;;;;20.00;18.50;;;;;26.10;46.81;100819.47;146608;587;47012;-70
2022/07/24 04:40:52;;;;;;;;;16.00;14.75;;;;;26.27;47.82;100814.84;146615;590;46014;-70
2022/07/24 04:43:44;;;;;;;;;16.75;16.75;;;;;26.47;48.04;100819.91;146607;629;46017;-70
2022/07/24 04:46:37;;;;;;;;;26.25;21.25;;;;;26.61;47.38;100825.09;146615;597;46020;-72
2022/07/24 04:49:29;;;;;;;;;20.75;20.00;;;;;26.77;47.55;100831.09;146608;645;46016;-70
2022/07/24 04:52:21;;;;;;;;;22.00;19.50;;;;;26.93;46.66;100830.84;146615;628;47010;-70
2022/07/24 04:55:14;;;;;;;;;19.75;19.50;;;;;27.17;46.38;100824.31;146611;711;46012;-70
2022/07/24 04:58:06;;;;;;;;;25.25;23.00;;;;;27.41;46.30;100822.16;146613;585;46021;-70
2022/07/24 05:00:58;;;;;;;;;22.00;20.50;;;;;27.64;45.51;100821.78;146609;621;46915;-71
2022/07/24 05:03:50;;;;;;;;;21.75;19.75;;;;;27.84;44.59;100814.31;146609;565;47010;-70
2022/07/24 05:06:42;;;;;;;;;22.75;21.75;;;;;28.08;43.95;100820.09;146604;620;47014;-70
2022/07/24 05:09:34;;;;;;;;;20.75;18.25;;;;;28.36;43.11;100814.22;146612;592;46020;-70
2022/07/24 05:12:27;;;;;;;;;22.00;22.00;;;;;28.61;43.68;100815.47;146606;642;46027;-71
2022/07/24 05:15:18;;;;;;;;;19.25;19.00;;;;;28.85;41.93;100811.41;146610;604;46010;-70
2022/07/24 05:18:11;;;;;;;;;20.25;18.75;;;;;29.09;41.60;100812.63;146606;564;46016;-70
2022/07/24 05:21:02;;;;;;;;;21.00;20.00;;;;;29.34;41.06;100817.38;146607;622;46011;-71
2022/07/24 05:23:55;;;;;;;;;21.00;19.50;;;;;29.57;41.96;100822.16;146606;656;46012;-70
2022/07/24 05:26:46;;;;;;;;;24.50;19.75;;;;;29.78;41.14;100815.38;146611;588;46021;-70
2022/07/24 05:29:39;;;;;;;;;21.00;19.25;;;;;29.99;39.73;100827.28;146607;653;47012;-70
2022/07/24 05:32:30;;;;;;;;;19.25;19.25;;;;;30.16;39.26;100835.72;146612;571;47010;-70
2022/07/24 05:35:23;;;;;;;;;22.50;21.25;;;;;30.28;39.87;100819.38;146602;582;46017;-70
2022/07/24 05:38:15;;;;;;;;;20.50;20.50;;;;;30.43;39.78;100833.19;146609;630;47010;-71
2022/07/24 05:41:07;;;;;;;;;24.00;21.50;;;;;29.62;40.06;100673.28;146602;578;46016;-71
2022/07/24 05:43:59;;;;;;;;;21.25;19.75;;;;;30.68;39.78;100834.22;146610;589;46021;-70
2022/07/24 05:46:52;;;;;;;;;22.50;22.50;;;;;30.77;38.89;100833.06;146606;575;46012;-70
2022/07/24 05:49:43;;;;;;;;;21.00;19.00;;;;;30.82;38.54;100839.19;146612;582;46010;-70
2022/07/24 05:52:36;;;;;;;;;23.25;20.25;;;;;30.86;39.04;100838.16;146606;581;46012;-70
2022/07/24 05:55:28;;;;;;;;;24.00;19.75;;;;;30.99;38.79;100838.66;146609;584;46020;-70
2022/07/24 05:58:20;;;;;;;;;24.50;20.25;;;;;31.12;38.37;100840.00;146604;579;46012;-70
2022/07/24 06:01:12;;;;;;;;;23.50;21.00;;;;;31.29;39.61;100840.34;146612;644;46020;-71
2022/07/24 06:04:05;;;;;;;;;21.00;20.75;;;;;31.43;39.38;100839.91;146605;570;46017;-71
2022/07/24 06:06:56;;;;;;;;;23.75;21.25;;;;;31.57;39.38;100841.28;146614;623;46020;-70
2022/07/24 06:09:51;;;;;;;;;26.00;21.75;;;;;31.73;39.28;100846.06;146601;580;48916;-71
2022/07/24 06:12:43;;;;;;;;;25.00;22.75;;;;;31.89;39.69;100835.69;146610;613;46011;-72
2022/07/24 06:15:36;;;;;;;;;22.50;22.50;;;;;32.06;38.98;100835.09;146605;614;46027;-70
2022/07/24 06:18:28;;;;;;;;;30.00;26.50;;;;;32.17;37.96;100832.88;146611;652;46010;-71
2022/07/24 06:21:20;;;;;;;;;25.25;23.00;;;;;32.23;38.91;100829.13;146603;633;47014;-70
2022/07/24 06:24:12;;;;;;;;;27.75;24.75;;;;;32.28;37.88;100835.19;146613;591;46010;-70
2022/07/24 06:27:05;;;;;;;;;21.50;21.50;;;;;32.30;39.00;100832.44;146605;590;46013;-70
2022/07/24 06:29:57;;;;;;;;;21.75;21.75;;;;;32.39;39.62;100826.72;146608;612;46010;-71
2022/07/24 06:32:53;;;;;;;;;26.50;22.75;;;;;32.49;39.26;100825.47;146604;592;46017;-70
2022/07/24 06:35:46;;;;;;;;;27.00;25.00;;;;;32.61;39.26;100825.00;146611;609;47010;-70
2022/07/24 06:38:40;;;;;;;;;25.00;24.00;;;;;32.63;39.15;100823.16;146606;563;46016;-70
2022/07/24 06:41:32;;;;;;;;;27.25;24.25;;;;;32.71;38.98;100824.66;146609;564;46021;-70
2022/07/24 06:44:24;;;;;;;;;27.25;26.00;;;;;32.80;38.91;100822.47;146605;595;46012;-71
2022/07/24 06:47:16;;;;;;;;;24.00;22.50;;;;;32.88;38.55;100817.69;146611;576;46020;-71
2022/07/24 06:50:09;;;;;;;;;29.50;25.25;;;;;33.03;38.23;100823.41;146604;630;46017;-71
2022/07/24 06:53:01;;;;;;;;;21.75;19.75;;;;;33.12;38.39;100809.59;146611;633;46010;-71
2022/07/24 06:55:55;;;;;;;;;24.00;23.75;;;;;33.20;38.86;100814.66;146608;564;45017;-70
2022/07/24 06:58:46;;;;;;;;;25.25;24.25;;;;;33.36;38.63;100810.37;146606;595;46020;-71
2022/07/24 07:01:39;;;;;;;;;23.00;23.00;;;;;33.55;38.40;100814.09;146605;592;45042;-70
2022/07/24 07:04:30;;;;;;;;;22.00;22.00;;;;;33.70;39.48;100806.28;146611;588;46014;-71
2022/07/24 07:07:24;;;;;;;;;22.75;21.25;;;;;33.70;39.37;100808.97;146607;570;46016;-70
2022/07/24 07:10:16;;;;;;;;;24.00;22.25;;;;;33.73;39.55;100806.16;146611;677;46021;-70
2022/07/24 07:13:08;;;;;;;;;24.25;24.00;;;;;33.78;40.20;100804.13;146605;636;46016;-70
2022/07/24 07:16:00;;;;;;;;;22.25;19.00;;;;;33.76;40.68;100803.31;146608;584;46020;-70
2022/07/24 07:18:52;;;;;;;;;25.50;23.75;;;;;33.75;40.45;100799.75;146607;656;46036;-70
2022/07/24 07:21:44;;;;;;;;;24.00;21.50;;;;;33.76;41.30;100803.31;146611;577;46020;-70
2022/07/24 07:24:37;;;;;;;;;22.00;21.00;;;;;33.82;40.57;100800.34;146605;593;46013;-70
2022/07/24 07:27:29;;;;;;;;;23.50;22.00;;;;;33.91;41.00;100805.34;146611;591;46010;-70
2022/07/24 07:30:21;;;;;;;;;23.25;20.75;;;;;34.00;40.22;100806.75;146606;608;46012;-70
2022/07/24 07:33:13;;;;;;;;;23.75;22.00;;;;;34.09;39.42;100802.81;146609;569;46021;-70
2022/07/24 07:36:06;;;;;;;;;23.00;21.00;;;;;34.15;39.07;100797.16;146607;588;46033;-71
2022/07/24 07:38:57;;;;;;;;;22.00;21.75;;;;;34.33;39.59;100792.72;146613;604;46020;-71
2022/07/24 07:41:50;;;;;;;;;23.50;22.50;;;;;34.48;39.25;100795.53;146604;587;46016;-71
2022/07/24 07:44:42;;;;;;;;;25.75;24.00;;;;;34.62;38.34;100786.88;146607;661;46020;-70
2022/07/24 07:47:34;;;;;;;;;23.25;21.50;;;;;34.80;39.12;100795.00;146605;604;45017;-70
2022/07/24 07:50:27;;;;;;;;;22.75;21.25;;;;;34.99;39.92;100786.91;146614;706;45030;-69
2022/07/24 07:53:19;;;;;;;;;26.75;25.00;;;;;35.11;38.29;100789.00;146607;574;46034;-70
2022/07/24 07:56:11;;;;;;;;;21.50;19.25;;;;;35.17;39.25;100788.69;146610;593;46021;-70
2022/07/24 07:59:03;;;;;;;;;21.00;20.50;;;;;35.20;38.88;100793.06;146607;572;46012;-71
2022/07/24 08:01:55;;;;;;;;;21.75;20.50;;;;;35.26;38.79;100796.31;146612;605;46010;-71
2022/07/24 08:04:47;;;;;;;;;23.75;22.00;;;;;35.34;39.70;100793.25;146609;606;45017;-70
2022/07/24 08:07:40;;;;;;;;;22.50;21.75;;;;;35.36;38.34;100789.53;146611;605;46020;-71
2022/07/24 08:11:26;;;;;;;;;21.50;21.50;;;;;35.45;38.05;100793.53;146607;564;46016;-71
2022/07/24 08:14:40;;;;;;;;;21.50;20.25;;;;;35.56;38.30;100783.13;146606;569;47010;-71
2022/07/24 08:17:33;;;;;;;;;24.50;24.00;;;;;35.69;38.52;100777.94;146604;567;47013;-71
2022/07/24 08:20:26;;;;;;;;;20.00;18.00;;;;;35.81;36.83;100780.00;146612;628;46020;-70
2022/07/24 08:23:18;;;;;;;;;23.25;23.25;;;;;35.91;35.42;100774.97;146605;583;46012;-70
2022/07/24 08:26:11;;;;;;;;;21.75;20.75;;;;;36.07;34.95;100775.06;146612;653;46020;-70
2022/07/24 08:29:03;;;;;;;;;19.00;19.00;;;;;36.27;33.69;100777.53;146610;573;46012;-70
2022/07/24 08:31:55;;;;;;;;;24.50;21.25;;;;;36.46;34.78;100773.81;146612;564;46028;-69
2022/07/24 08:34:53;;;;;;;;;20.75;20.75;;;;;36.53;34.51;100769.84;146605;582;46016;-70
2022/07/24 08:37:46;;;;;;;;;26.00;24.75;;;;;36.55;37.20;100770.62;146612;564;46020;-69
2022/07/24 08:40:41;;;;;;;;;22.50;20.25;;;;;36.52;36.62;100768.09;146603;602;46016;-70
2022/07/24 08:43:33;;;;;;;;;23.00;20.00;;;;;36.37;37.76;100759.00;146610;649;46020;-71
2022/07/24 08:46:27;;;;;;;;;25.00;23.50;;;;;36.23;38.73;100767.88;146606;577;46016;-70
2022/07/24 08:49:19;;;;;;;;;22.75;21.75;;;;;36.22;37.73;100766.13;146610;611;46020;-69
2022/07/24 08:52:11;;;;;;;;;21.75;21.00;;;;;36.23;37.38;100764.28;146604;589;47012;-70
2022/07/24 08:55:03;;;;;;;;;21.75;19.50;;;;;36.13;37.27;100766.63;146610;565;46010;-70
2022/07/24 08:57:56;;;;;;;;;23.00;21.50;;;;;36.08;37.02;100756.09;146607;606;46016;-70
2022/07/24 09:00:48;;;;;;;;;19.75;19.00;;;;;36.06;36.41;100760.69;146612;584;46020;-69
2022/07/24 09:03:48;;;;;;;;;20.75;18.75;;;;;35.98;34.48;100754.81;146604;650;47012;-70
2022/07/24 09:06:40;;;;;;;;;22.75;20.75;;;;;35.92;33.19;100768.66;146612;643;46010;-70
2022/07/24 09:09:32;;;;;;;;;19.75;18.00;;;;;35.83;32.68;100761.06;146607;565;46012;-71
2022/07/24 09:12:24;;;;;;;;;17.00;16.25;;;;;35.87;33.31;100759.91;146609;571;46020;-70
2022/07/24 09:15:26;;;;;;;;;16.25;15.75;;;;;35.91;30.29;100764.19;146605;604;46016;-71
2022/07/24 09:18:32;;;;;;;;;15.75;13.25;;;;;35.97;31.78;100757.59;146611;610;46020;-68
2022/07/24 09:21:26;;;;;;;;;20.50;19.50;;;;;35.95;31.99;100759.50;146604;575;46916;-71
2022/07/24 09:25:00;;;;;;;;;19.50;19.00;;;;;35.87;35.04;100753.66;146610;569;46021;-70
2022/07/24 09:27:59;;;;;;;;;23.50;22.50;;;;;35.72;34.86;100760.75;146601;597;46016;-70
2022/07/24 09:30:51;;;;;;;;;20.00;20.00;;;;;35.65;35.32;100754.81;146610;701;46020;-71
2022/07/24 09:33:43;;;;;;;;;19.50;17.50;;;;;35.54;36.09;100755.34;146607;604;46016;-70
2022/07/24 09:36:38;;;;;;;;;22.25;22.00;;;;;35.54;35.43;100749.94;146612;582;46010;-70
2022/07/24 09:39:32;;;;;;;;;22.25;20.50;;;;;35.49;36.66;100749.31;146606;571;46034;-69
2022/07/24 09:42:38;;;;;;;;;25.75;24.75;;;;;35.51;36.63;100746.50;146607;577;46020;-72
2022/07/24 09:45:32;;;;;;;;;19.50;17.75;;;;;35.49;37.14;100743.06;146604;567;46914;-71
2022/07/24 09:48:27;;;;;;;;;24.00;24.00;;;;;35.52;37.63;100742.88;146609;648;46020;-69
2022/07/24 09:51:20;;;;;;;;;22.50;20.25;;;;;35.56;36.48;100744.50;146604;569;46016;-70
2022/07/24 09:54:13;;;;;;;;;25.25;22.75;;;;;35.63;36.46;100748.59;146608;608;46021;-70
2022/07/24 09:57:28;;;;;;;;;22.25;21.25;;;;;35.67;36.45;100749.31;146607;565;46012;-70
2022/07/24 10:00:20;;;;;;;;;21.25;20.25;;;;;35.72;36.54;100745.41;146610;588;47010;-69
2022/07/24 10:03:22;;;;;;;;;21.00;19.00;;;;;35.72;35.92;100744.56;146599;594;47012;-69
2022/07/24 10:06:20;;;;;;;;;22.50;22.50;;;;;35.74;35.48;100743.53;146604;610;46021;-70
2022/07/24 10:09:16;;;;;;;;;23.50;21.50;;;;;35.67;35.43;100741.22;146600;584;46012;-70
2022/07/24 10:12:14;;;;;;;;;19.75;17.25;;;;;35.63;35.35;100735.13;146601;565;46010;-70
2022/07/24 10:15:18;;;;;;;;;20.75;19.25;;;;;35.55;35.69;100740.06;146600;569;46014;-69
2022/07/24 10:19:18;;;;;;;;;26.50;24.25;;;;;35.62;35.59;100742.34;146602;683;46020;-70
2022/07/24 10:22:27;;;;;;;;;24.50;22.25;;;;;35.71;34.85;100734.72;146599;655;46013;-70
2022/07/24 10:25:23;;;;;;;;;20.50;20.50;;;;;35.79;32.99;100727.06;146602;582;46010;-70
2022/07/24 10:28:25;;;;;;;;;21.75;20.75;;;;;35.81;33.51;100726.03;146600;584;46014;-70
2022/07/24 10:31:18;;;;;;;;;20.00;20.00;;;;;35.78;32.34;100730.75;146605;569;46010;-70
2022/07/24 10:34:47;;;;;;;;;20.25;17.00;;;;;34.83;32.36;100577.53;146606;592;46012;-70
2022/07/24 10:38:15;;;;;;;;;24.25;21.75;;;;;34.87;35.04;100576.41;146599;575;47010;-69
2022/07/24 10:41:18;;;;;;;;;23.50;20.25;;;;;35.87;34.38;100727.53;146598;578;46016;-70
2022/07/24 10:44:25;;;;;;;;;31.00;28.75;;;;;36.00;35.08;100734.00;146601;605;46010;-70
2022/07/24 10:47:18;;;;;;;;;23.50;22.50;;;;;36.07;34.28;100729.16;146599;584;46012;-70
2022/07/24 10:50:11;;;;;;;;;25.75;23.75;;;;;36.13;34.49;100725.25;146603;563;46020;-70
2022/07/24 10:53:56;;;;;;;;;21.50;18.00;;;;;35.24;35.27;100558.34;146598;585;46916;-70
2022/07/24 10:56:53;;;;;;;;;23.00;22.00;;;;;36.29;34.80;100728.84;146601;646;46010;-70
2022/07/24 10:59:45;;;;;;;;;19.50;18.25;;;;;36.32;35.42;100728.69;146600;580;46014;-71
2022/07/24 11:03:32;;;;;;;;;23.75;20.25;;;;;35.42;35.83;100564.53;146603;615;46020;-70
2022/07/24 11:07:14;;;;;;;;;20.50;20.00;;;;;36.41;35.80;100728.16;146599;588;46018;-69
2022/07/24 11:10:09;;;;;;;;;23.75;22.75;;;;;36.40;35.99;100722.84;146606;589;46020;-71
2022/07/24 11:13:01;;;;;;;;;22.00;20.25;;;;;36.41;36.76;100732.69;146601;628;46916;-70
2022/07/24 11:16:29;;;;;;;;;20.25;18.25;;;;;36.44;35.43;100716.31;146603;598;46021;-70
2022/07/24 11:19:32;;;;;;;;;19.00;18.00;;;;;36.46;34.41;100714.41;146600;635;46012;-71
2022/07/24 11:22:51;;;;;;;;;19.75;18.75;;;;;36.41;34.40;100713.78;146603;605;46021;-69
2022/07/24 11:25:44;;;;;;;;;18.25;17.25;;;;;36.35;33.80;100711.44;146599;643;46016;-70
2022/07/24 11:28:36;;;;;;;;;17.25;17.00;;;;;36.38;34.49;100708.56;146604;573;46020;-71
2022/07/24 11:31:28;;;;;;;;;19.00;19.00;;;;;36.46;33.41;100709.00;146602;714;46012;-70
2022/07/24 11:34:21;;;;;;;;;22.50;21.25;;;;;36.55;33.62;100704.94;146604;566;46014;-70
2022/07/24 11:37:13;;;;;;;;;18.00;17.00;;;;;36.59;32.53;100701.97;146600;596;46016;-70
2022/07/24 11:40:09;;;;;;;;;15.25;14.75;;;;;36.67;32.96;100698.81;146600;569;46020;-70
2022/07/24 11:43:03;;;;;;;;;19.50;17.75;;;;;36.70;31.84;100695.94;146599;633;46013;-70
2022/07/24 11:45:56;;;;;;;;;17.25;17.25;;;;;36.70;32.15;100702.22;146601;572;46020;-70
2022/07/24 11:48:48;;;;;;;;;14.25;13.25;;;;;36.74;32.58;100697.50;146600;587;46012;-70
2022/07/24 11:52:16;;;;;;;;;18.50;18.50;;;;;36.75;33.39;100700.09;146604;608;46020;-70
2022/07/24 11:55:24;;;;;;;;;20.00;18.00;;;;;36.76;32.13;100690.16;146598;604;46012;-70
2022/07/24 11:58:42;;;;;;;;;18.25;16.75;;;;;36.76;31.83;100699.16;146604;571;46020;-70
2022/07/24 12:01:35;;;;;;;;;15.25;14.50;;;;;36.77;31.79;100694.63;146599;584;47012;-69
2022/07/24 12:04:27;;;;;;;;;20.25;18.25;;;;;36.81;32.01;100695.31;146601;626;46020;-70
2022/07/24 12:07:29;;;;;;;;;16.50;16.50;;;;;36.85;30.89;100694.16;146598;600;46013;-70
2022/07/24 12:14:00;;;;;;;;;19.75;18.25;;;;;36.83;32.78;100691.56;146599;599;46016;-70
2022/07/24 12:21:15;;;;;;;;;18.75;17.50;;;;;36.86;32.68;100677.87;146600;599;46016;-70
2022/07/24 12:24:09;;;;;;;;;18.75;18.50;;;;;36.79;32.06;100676.47;146600;572;46911;-70
2022/07/24 12:27:03;;;;;;;;;17.50;17.00;;;;;36.78;32.73;100676.59;146599;605;46016;-70
2022/07/24 12:29:58;;;;;;;;;17.50;17.50;;;;;36.78;31.70;100663.94;146603;618;46021;-71
2022/07/24 12:32:58;;;;;;;;;15.75;14.75;;;;;36.74;32.10;100667.78;146599;624;46014;-70
2022/07/24 12:36:39;;;;;;;;;;;;;;;;;;;;;
2022/07/24 12:39:36;;;;;;;;;20.00;17.25;;;;;36.65;32.38;100674.59;146597;569;47012;-70
2022/07/24 12:42:35;;;;;;;;;17.50;16.50;;;;;36.57;33.44;100673.31;146601;649;46010;-70
2022/07/24 12:45:27;;;;;;;;;18.00;16.00;;;;;36.54;33.21;100668.94;146600;575;46016;-71
2022/07/24 12:48:34;;;;;;;;;21.25;18.75;;;;;36.56;33.92;100669.72;146601;563;46010;-70
2022/07/24 12:52:04;;;;;;;;;18.75;18.25;;;;;36.60;33.65;100668.59;146597;581;46918;-71
2022/07/24 12:54:56;;;;;;;;;19.00;19.00;;;;;36.57;34.46;100663.38;146603;564;46020;-71
2022/07/24 12:57:48;;;;;;;;;16.00;16.00;;;;;36.56;34.50;100658.94;146599;580;46012;-70
2022/07/24 13:00:41;;;;;;;;;18.25;16.25;;;;;36.59;34.41;100657.87;146602;614;46010;-71
2022/07/24 13:03:32;;;;;;;;;19.75;19.50;;;;;36.56;33.97;100656.22;146598;619;47012;-70
2022/07/24 13:06:44;;;;;;;;;19.25;19.25;;;;;36.48;35.19;100653.06;146603;686;46010;-70
2022/07/24 13:09:45;;;;;;;;;20.00;19.00;;;;;36.45;34.75;100659.53;146600;584;46016;-70
2022/07/24 13:12:37;;;;;;;;;17.75;16.25;;;;;36.40;32.81;100645.41;146599;599;47010;-70
2022/07/24 13:15:28;;;;;;;;;18.50;16.50;;;;;36.23;33.67;100645.50;146599;582;46012;-69
2022/07/24 13:18:22;;;;;;;;;16.25;16.25;;;;;36.03;33.83;100636.72;146599;566;46020;-69
2022/07/24 13:21:14;;;;;;;;;19.50;19.00;;;;;35.88;35.26;100632.12;146600;566;46013;-70
2022/07/24 13:24:08;;;;;;;;;16.50;15.75;;;;;35.70;34.20;100636.72;146600;579;47010;-69
2022/07/24 13:27:00;;;;;;;;;20.00;18.75;;;;;35.63;36.01;100629.94;146600;625;46016;-70